»·PEaware :: N149CD KVNY-KHHR

N149CD :: KVNY-KHHR

FLIGHT INFORMATION

Flight Status: Arrived
Operator: Privately registered:
United States
More flights under this callsign
Pilot: Nathan E. (30132)
Aircraft: CESSNA 172 SKYHAWK
(C172)
More flights by this aircraft type
Origin: KVNY Van Nuys
United States
Destination: KHHR Northrop/Hawthorne Mun
United States
More flights between these airports :: More routes between these airports
Route: +ADAMM3 ADAMM V394 HHR 25 LOC
File this flight plan on PilotEdge
Remarks: TEC route BURP1
Altitude:
(Current/Filed)
5,000ft
Speed:
(Current/Filed)
110kts
Departed: 02-Sep-20 04:26 PM
Arrived: 02-Sep-20 05:05 PM
Distance/Time
Traveled:
19nm/0:38
Distance/Time
To Go:
Arrived

Flight Plot

Page will automatically refresh every two minutes.

Flight plan parsing failed; only flown route is shown


Map Options




Map Legend


Flown Route
Filed Route
Departure Airport
Arrival Airport
Navaid (VOR, NDB)
Fix

Horizontal Profiles

Position Reports

Time Latitude Longitude Heading Altitude Ground
Speed
02-Sep-20 16:04 34.215503 -118.498557 0 806ft 0kts
02-Sep-20 16:05 34.215503 -118.498557 2 806ft 0kts
02-Sep-20 16:06 34.215503 -118.498557 2 806ft 0kts
02-Sep-20 16:07 34.215503 -118.498557 2 806ft 0kts
02-Sep-20 16:08 34.215503 -118.498557 2 806ft 0kts
02-Sep-20 16:09 34.215503 -118.498557 2 806ft 0kts
02-Sep-20 16:10 34.215503 -118.498557 2 806ft 0kts
02-Sep-20 16:11 34.215503 -118.498557 2 806ft 0kts
02-Sep-20 16:12 34.215503 -118.498557 2 806ft 0kts
02-Sep-20 16:13 34.215503 -118.498557 2 806ft 0kts
02-Sep-20 16:14 34.215503 -118.498557 2 806ft 0kts
02-Sep-20 16:15 34.215503 -118.498557 2 806ft 0kts
02-Sep-20 16:16 34.215503 -118.498557 2 806ft 0kts
02-Sep-20 16:17 34.215503 -118.498557 2 806ft 0kts
02-Sep-20 16:18 34.215503 -118.498557 2 806ft 0kts
02-Sep-20 16:19 34.215983 -118.498293 44 806ft 8kts
02-Sep-20 16:20 34.217416 -118.494513 99 806ft 16kts
02-Sep-20 16:21 34.219356 -118.492478 69 806ft 5kts
02-Sep-20 16:22 34.219333 -118.492193 99 806ft 0kts
02-Sep-20 16:23 34.219333 -118.492193 99 806ft 0kts
02-Sep-20 16:24 34.219333 -118.492193 99 806ft 0kts
02-Sep-20 16:25 34.214136 -118.490794 174 812ft 69kts
02-Sep-20 16:26 34.194747 -118.489369 174 1589ft 70kts
02-Sep-20 16:27 34.180742 -118.475702 124 2390ft 72kts
02-Sep-20 16:28 34.173410 -118.453351 111 3152ft 73kts
02-Sep-20 16:29 34.167685 -118.429732 110 3869ft 73kts
02-Sep-20 16:30 34.161908 -118.405951 109 4547ft 74kts
02-Sep-20 16:31 34.155796 -118.380917 108 5018ft 96kts
02-Sep-20 16:32 34.147624 -118.347586 108 5010ft 105kts
02-Sep-20 16:33 34.139371 -118.313740 108 5008ft 104kts
02-Sep-20 16:34 34.131145 -118.280009 108 5007ft 105kts
02-Sep-20 16:35 34.122881 -118.246173 109 5006ft 105kts
02-Sep-20 16:36 34.114529 -118.212023 109 5005ft 106kts
02-Sep-20 16:37 34.106110 -118.177649 109 5004ft 107kts
02-Sep-20 16:38 34.097509 -118.142831 104 4992ft 113kts
02-Sep-20 16:39 34.088196 -118.104691 104 4974ft 119kts
02-Sep-20 16:40 34.078822 -118.066571 104 4973ft 118kts
02-Sep-20 16:41 34.069498 -118.028696 104 4978ft 118kts
02-Sep-20 16:42 34.060101 -117.990598 104 4981ft 118kts
02-Sep-20 16:43 34.050667 -117.952410 104 4984ft 119kts
02-Sep-20 16:44 34.041197 -117.914131 104 4987ft 119kts
02-Sep-20 16:45 34.031707 -117.875830 104 4989ft 119kts
02-Sep-20 16:46 34.022173 -117.837407 104 4991ft 119kts
02-Sep-20 16:47 33.994728 -117.828479 201 4986ft 117kts
02-Sep-20 16:48 33.964225 -117.842165 203 4981ft 117kts
02-Sep-20 16:49 33.936521 -117.860084 247 4958ft 113kts
02-Sep-20 16:50 33.924580 -117.896706 252 4474ft 117kts
02-Sep-20 16:51 33.920457 -117.933894 282 3980ft 115kts
02-Sep-20 16:52 33.926278 -117.971987 282 3486ft 116kts
02-Sep-20 16:53 33.931702 -118.010234 276 2995ft 115kts
02-Sep-20 16:54 33.933858 -118.046784 275 2673ft 105kts
02-Sep-20 16:55 33.936548 -118.082412 273 2511ft 108kts
02-Sep-20 16:56 33.935172 -118.118474 266 2014ft 108kts
02-Sep-20 16:57 33.931331 -118.154379 264 1517ft 107kts
02-Sep-20 16:58 33.927641 -118.187822 263 1483ft 99kts
02-Sep-20 16:59 33.924138 -118.220413 276 1480ft 90kts
02-Sep-20 17:00 33.927489 -118.251425 271 1337ft 103kts
02-Sep-20 17:01 33.925404 -118.281329 267 859ft 75kts
02-Sep-20 17:02 33.924311 -118.302494 266 497ft 57kts
02-Sep-20 17:03 33.923494 -118.320987 264 218ft 53kts
02-Sep-20 17:04 33.922760 -118.331455 172 59ft 0kts
02-Sep-20 17:05 33.922760 -118.331455 172 59ft 0kts
02-Sep-20 17:06 33.922760 -118.331455 172 59ft 0kts
02-Sep-20 17:07 33.922625 -118.331357 109 59ft 5kts
02-Sep-20 17:08 33.922899 -118.327191 356 56ft 1kts
02-Sep-20 17:09 33.923185 -118.327851 266 56ft 24kts
02-Sep-20 17:10 33.921735 -118.350982 262 685ft 73kts
02-Sep-20 17:11 33.908951 -118.339378 90 1057ft 123kts
02-Sep-20 17:12 33.918071 -118.311249 349 661ft 83kts
02-Sep-20 17:13 33.923145 -118.328862 266 66ft 49kts
02-Sep-20 17:14 33.922156 -118.347743 264 494ft 68kts
02-Sep-20 17:15 33.909806 -118.354792 107 1053ft 110kts
02-Sep-20 17:16 33.910650 -118.317215 65 1014ft 92kts
02-Sep-20 17:17 33.923414 -118.322886 266 174ft 54kts
02-Sep-20 17:18 33.922744 -118.337212 266 61ft 15kts

Navigation Log

Ident Type
Flight plan parsing failed, navigation log unavailable